sensor_id;sensor_type;location;lat;lon;timestamp;P1;durP1;ratioP1;P2;durP2;ratioP2
20324;SDS011;10320;49.482;11.256;2023-11-19T00:00:42;3.60;;;3.30;;
20324;SDS011;10320;49.482;11.256;2023-11-19T00:03:08;3.50;;;3.20;;
20324;SDS011;10320;49.482;11.256;2023-11-19T00:05:38;3.50;;;3.20;;
20324;SDS011;10320;49.482;11.256;2023-11-19T00:08:04;3.60;;;3.30;;
20324;SDS011;10320;49.482;11.256;2023-11-19T00:10:31;3.90;;;3.60;;
20324;SDS011;10320;49.482;11.256;2023-11-19T00:12:57;3.97;;;3.67;;
20324;SDS011;10320;49.482;11.256;2023-11-19T00:15:23;3.73;;;3.43;;
20324;SDS011;10320;49.482;11.256;2023-11-19T00:17:50;3.40;;;3.10;;
20324;SDS011;10320;49.482;11.256;2023-11-19T00:20:19;3.60;;;3.30;;
20324;SDS011;10320;49.482;11.256;2023-11-19T00:22:49;3.70;;;3.40;;
20324;SDS011;10320;49.482;11.256;2023-11-19T00:25:18;3.23;;;3.00;;
20324;SDS011;10320;49.482;11.256;2023-11-19T00:27:44;3.43;;;3.00;;
20324;SDS011;10320;49.482;11.256;2023-11-19T00:30:10;3.57;;;3.27;;
20324;SDS011;10320;49.482;11.256;2023-11-19T00:32:37;3.40;;;3.10;;
20324;SDS011;10320;49.482;11.256;2023-11-19T00:35:04;3.70;;;3.40;;
20324;SDS011;10320;49.482;11.256;2023-11-19T00:37:31;3.50;;;3.20;;
20324;SDS011;10320;49.482;11.256;2023-11-19T00:39:57;4.13;;;3.10;;
20324;SDS011;10320;49.482;11.256;2023-11-19T00:42:23;3.30;;;3.10;;
20324;SDS011;10320;49.482;11.256;2023-11-19T00:44:49;3.77;;;3.40;;
20324;SDS011;10320;49.482;11.256;2023-11-19T00:47:15;3.90;;;3.53;;
20324;SDS011;10320;49.482;11.256;2023-11-19T00:49:41;2.93;;;2.73;;
20324;SDS011;10320;49.482;11.256;2023-11-19T00:52:08;3.40;;;3.13;;
20324;SDS011;10320;49.482;11.256;2023-11-19T00:54:33;3.60;;;3.30;;
20324;SDS011;10320;49.482;11.256;2023-11-19T00:56:59;3.57;;;3.27;;
20324;SDS011;10320;49.482;11.256;2023-11-19T00:59:26;3.33;;;3.03;;
20324;SDS011;10320;49.482;11.256;2023-11-19T01:01:53;3.30;;;3.00;;
20324;SDS011;10320;49.482;11.256;2023-11-19T01:04:21;3.20;;;3.00;;
20324;SDS011;10320;49.482;11.256;2023-11-19T01:06:49;3.10;;;2.90;;
20324;SDS011;10320;49.482;11.256;2023-11-19T01:09:15;3.23;;;2.93;;
20324;SDS011;10320;49.482;11.256;2023-11-19T01:11:41;3.13;;;2.93;;
20324;SDS011;10320;49.482;11.256;2023-11-19T01:14:07;3.37;;;3.07;;
20324;SDS011;10320;49.482;11.256;2023-11-19T01:16:33;3.30;;;3.00;;
20324;SDS011;10320;49.482;11.256;2023-11-19T01:18:59;3.13;;;2.80;;
20324;SDS011;10320;49.482;11.256;2023-11-19T01:21:29;3.23;;;2.93;;
20324;SDS011;10320;49.482;11.256;2023-11-19T01:23:55;2.70;;;2.50;;
20324;SDS011;10320;49.482;11.256;2023-11-19T01:26:21;2.90;;;2.70;;
20324;SDS011;10320;49.482;11.256;2023-11-19T01:28:47;3.50;;;2.80;;
20324;SDS011;10320;49.482;11.256;2023-11-19T01:31:16;3.00;;;2.70;;
20324;SDS011;10320;49.482;11.256;2023-11-19T01:33:42;2.73;;;2.53;;
20324;SDS011;10320;49.482;11.256;2023-11-19T01:36:09;3.10;;;2.90;;
20324;SDS011;10320;49.482;11.256;2023-11-19T01:38:35;2.77;;;2.57;;
20324;SDS011;10320;49.482;11.256;2023-11-19T01:41:01;2.70;;;2.50;;
20324;SDS011;10320;49.482;11.256;2023-11-19T01:43:35;2.77;;;2.57;;
20324;SDS011;10320;49.482;11.256;2023-11-19T01:46:01;2.40;;;2.20;;
20324;SDS011;10320;49.482;11.256;2023-11-19T01:48:33;2.60;;;2.40;;
20324;SDS011;10320;49.482;11.256;2023-11-19T01:51:05;3.27;;;2.97;;
20324;SDS011;10320;49.482;11.256;2023-11-19T01:53:33;3.50;;;2.60;;
20324;SDS011;10320;49.482;11.256;2023-11-19T01:55:59;3.13;;;2.83;;
20324;SDS011;10320;49.482;11.256;2023-11-19T01:58:26;2.70;;;2.50;;
20324;SDS011;10320;49.482;11.256;2023-11-19T02:00:55;2.90;;;2.70;;
20324;SDS011;10320;49.482;11.256;2023-11-19T02:03:21;2.53;;;2.33;;
20324;SDS011;10320;49.482;11.256;2023-11-19T02:05:47;2.93;;;2.73;;
20324;SDS011;10320;49.482;11.256;2023-11-19T02:08:14;2.80;;;2.60;;
20324;SDS011;10320;49.482;11.256;2023-11-19T02:10:40;2.37;;;2.17;;
20324;SDS011;10320;49.482;11.256;2023-11-19T02:13:06;2.97;;;2.77;;
20324;SDS011;10320;49.482;11.256;2023-11-19T02:15:32;2.60;;;2.40;;
20324;SDS011;10320;49.482;11.256;2023-11-19T02:18:16;2.70;;;2.50;;
20324;SDS011;10320;49.482;11.256;2023-11-19T02:20:43;2.57;;;2.37;;
20324;SDS011;10320;49.482;11.256;2023-11-19T02:23:09;3.03;;;2.77;;
20324;SDS011;10320;49.482;11.256;2023-11-19T02:25:35;2.80;;;2.60;;
20324;SDS011;10320;49.482;11.256;2023-11-19T02:28:01;3.27;;;2.97;;
20324;SDS011;10320;49.482;11.256;2023-11-19T02:30:27;2.90;;;2.70;;
20324;SDS011;10320;49.482;11.256;2023-11-19T02:32:54;3.37;;;3.07;;
20324;SDS011;10320;49.482;11.256;2023-11-19T02:35:24;3.93;;;3.37;;
20324;SDS011;10320;49.482;11.256;2023-11-19T02:37:51;3.03;;;2.73;;
20324;SDS011;10320;49.482;11.256;2023-11-19T02:40:17;2.87;;;2.67;;
20324;SDS011;10320;49.482;11.256;2023-11-19T02:42:43;2.73;;;2.53;;
20324;SDS011;10320;49.482;11.256;2023-11-19T02:45:09;2.93;;;2.70;;
20324;SDS011;10320;49.482;11.256;2023-11-19T02:47:42;2.70;;;2.50;;
20324;SDS011;10320;49.482;11.256;2023-11-19T02:50:11;2.60;;;2.40;;
20324;SDS011;10320;49.482;11.256;2023-11-19T02:52:42;2.77;;;2.57;;
20324;SDS011;10320;49.482;11.256;2023-11-19T02:55:12;2.60;;;2.40;;
20324;SDS011;10320;49.482;11.256;2023-11-19T02:57:39;3.00;;;2.50;;
20324;SDS011;10320;49.482;11.256;2023-11-19T03:00:12;2.63;;;2.43;;
20324;SDS011;10320;49.482;11.256;2023-11-19T03:02:39;2.90;;;2.57;;
20324;SDS011;10320;49.482;11.256;2023-11-19T03:05:10;2.67;;;2.43;;
20324;SDS011;10320;49.482;11.256;2023-11-19T03:07:37;2.73;;;2.53;;
20324;SDS011;10320;49.482;11.256;2023-11-19T03:10:03;2.80;;;2.60;;
20324;SDS011;10320;49.482;11.256;2023-11-19T03:12:30;3.37;;;2.43;;
20324;SDS011;10320;49.482;11.256;2023-11-19T03:14:56;3.13;;;2.80;;
20324;SDS011;10320;49.482;11.256;2023-11-19T03:17:22;3.17;;;2.87;;
20324;SDS011;10320;49.482;11.256;2023-11-19T03:19:49;4.07;;;2.90;;
20324;SDS011;10320;49.482;11.256;2023-11-19T03:22:15;3.30;;;3.00;;
20324;SDS011;10320;49.482;11.256;2023-11-19T03:24:41;3.90;;;2.97;;
20324;SDS011;10320;49.482;11.256;2023-11-19T03:27:07;2.63;;;2.43;;
20324;SDS011;10320;49.482;11.256;2023-11-19T03:29:33;3.13;;;2.63;;
20324;SDS011;10320;49.482;11.256;2023-11-19T03:31:59;3.30;;;3.00;;
20324;SDS011;10320;49.482;11.256;2023-11-19T03:34:25;3.13;;;2.80;;
20324;SDS011;10320;49.482;11.256;2023-11-19T03:36:51;3.23;;;2.90;;
20324;SDS011;10320;49.482;11.256;2023-11-19T03:39:17;3.43;;;3.13;;
20324;SDS011;10320;49.482;11.256;2023-11-19T03:41:45;3.63;;;3.33;;
20324;SDS011;10320;49.482;11.256;2023-11-19T03:44:14;3.47;;;3.13;;
20324;SDS011;10320;49.482;11.256;2023-11-19T03:46:40;3.57;;;3.00;;
20324;SDS011;10320;49.482;11.256;2023-11-19T03:49:06;3.23;;;2.93;;
20324;SDS011;10320;49.482;11.256;2023-11-19T03:51:32;3.60;;;3.30;;
20324;SDS011;10320;49.482;11.256;2023-11-19T03:53:59;3.30;;;3.00;;
20324;SDS011;10320;49.482;11.256;2023-11-19T03:56:26;3.40;;;3.10;;
20324;SDS011;10320;49.482;11.256;2023-11-19T03:58:52;3.50;;;3.20;;
20324;SDS011;10320;49.482;11.256;2023-11-19T04:01:18;3.77;;;3.47;;
20324;SDS011;10320;49.482;11.256;2023-11-19T04:03:44;4.10;;;3.70;;
20324;SDS011;10320;49.482;11.256;2023-11-19T04:06:10;3.70;;;3.40;;
20324;SDS011;10320;49.482;11.256;2023-11-19T04:08:36;4.00;;;3.70;;
20324;SDS011;10320;49.482;11.256;2023-11-19T04:11:03;3.80;;;3.50;;
20324;SDS011;10320;49.482;11.256;2023-11-19T04:13:29;3.80;;;3.50;;
20324;SDS011;10320;49.482;11.256;2023-11-19T04:15:55;3.87;;;3.57;;
20324;SDS011;10320;49.482;11.256;2023-11-19T04:18:21;4.13;;;3.63;;
20324;SDS011;10320;49.482;11.256;2023-11-19T04:20:48;3.40;;;3.10;;
20324;SDS011;10320;49.482;11.256;2023-11-19T04:23:15;4.00;;;3.60;;
20324;SDS011;10320;49.482;11.256;2023-11-19T04:25:41;3.90;;;3.60;;
20324;SDS011;10320;49.482;11.256;2023-11-19T04:28:08;4.37;;;3.97;;
20324;SDS011;10320;49.482;11.256;2023-11-19T04:30:34;4.53;;;4.13;;
20324;SDS011;10320;49.482;11.256;2023-11-19T04:33:00;5.10;;;4.60;;
20324;SDS011;10320;49.482;11.256;2023-11-19T04:35:26;4.53;;;4.13;;
20324;SDS011;10320;49.482;11.256;2023-11-19T04:37:52;4.90;;;4.50;;
20324;SDS011;10320;49.482;11.256;2023-11-19T04:40:18;4.60;;;4.20;;
20324;SDS011;10320;49.482;11.256;2023-11-19T04:42:47;4.90;;;4.40;;
20324;SDS011;10320;49.482;11.256;2023-11-19T04:45:13;4.47;;;4.07;;
20324;SDS011;10320;49.482;11.256;2023-11-19T04:47:41;4.63;;;4.23;;
20324;SDS011;10320;49.482;11.256;2023-11-19T04:50:07;4.60;;;4.20;;
20324;SDS011;10320;49.482;11.256;2023-11-19T04:52:37;4.57;;;4.17;;
20324;SDS011;10320;49.482;11.256;2023-11-19T04:55:05;4.80;;;4.40;;
20324;SDS011;10320;49.482;11.256;2023-11-19T04:57:31;4.73;;;4.33;;
20324;SDS011;10320;49.482;11.256;2023-11-19T04:59:57;5.10;;;4.60;;
20324;SDS011;10320;49.482;11.256;2023-11-19T05:02:24;5.30;;;4.80;;
20324;SDS011;10320;49.482;11.256;2023-11-19T05:04:50;5.07;;;4.20;;
20324;SDS011;10320;49.482;11.256;2023-11-19T05:07:16;4.87;;;4.37;;
20324;SDS011;10320;49.482;11.256;2023-11-19T05:09:42;4.43;;;4.03;;
20324;SDS011;10320;49.482;11.256;2023-11-19T05:12:08;4.67;;;4.27;;
20324;SDS011;10320;49.482;11.256;2023-11-19T05:14:37;4.60;;;4.20;;
20324;SDS011;10320;49.482;11.256;2023-11-19T05:17:03;5.07;;;4.63;;
20324;SDS011;10320;49.482;11.256;2023-11-19T05:19:29;5.27;;;4.50;;
20324;SDS011;10320;49.482;11.256;2023-11-19T05:21:55;5.03;;;4.53;;
20324;SDS011;10320;49.482;11.256;2023-11-19T05:24:21;4.93;;;4.43;;
20324;SDS011;10320;49.482;11.256;2023-11-19T05:26:48;4.40;;;4.00;;
20324;SDS011;10320;49.482;11.256;2023-11-19T05:29:15;5.03;;;4.53;;
20324;SDS011;10320;49.482;11.256;2023-11-19T05:31:42;6.40;;;5.80;;
20324;SDS011;10320;49.482;11.256;2023-11-19T05:34:08;6.20;;;5.60;;
20324;SDS011;10320;49.482;11.256;2023-11-19T05:36:34;7.30;;;5.73;;
20324;SDS011;10320;49.482;11.256;2023-11-19T05:39:00;6.97;;;5.50;;
20324;SDS011;10320;49.482;11.256;2023-11-19T05:41:28;6.10;;;5.23;;
20324;SDS011;10320;49.482;11.256;2023-11-19T05:43:54;5.83;;;5.23;;
20324;SDS011;10320;49.482;11.256;2023-11-19T05:46:20;5.80;;;5.20;;
20324;SDS011;10320;49.482;11.256;2023-11-19T05:48:46;6.03;;;5.00;;
20324;SDS011;10320;49.482;11.256;2023-11-19T05:51:12;5.13;;;4.63;;
20324;SDS011;10320;49.482;11.256;2023-11-19T05:53:40;5.40;;;4.90;;
20324;SDS011;10320;49.482;11.256;2023-11-19T05:56:06;5.10;;;4.60;;
20324;SDS011;10320;49.482;11.256;2023-11-19T05:58:34;6.00;;;5.10;;
20324;SDS011;10320;49.482;11.256;2023-11-19T06:01:01;6.13;;;5.23;;
20324;SDS011;10320;49.482;11.256;2023-11-19T06:03:28;6.77;;;4.90;;
20324;SDS011;10320;49.482;11.256;2023-11-19T06:05:54;5.90;;;5.30;;
20324;SDS011;10320;49.482;11.256;2023-11-19T06:08:20;5.50;;;5.00;;
20324;SDS011;10320;49.482;11.256;2023-11-19T06:10:46;5.60;;;5.00;;
20324;SDS011;10320;49.482;11.256;2023-11-19T06:13:15;6.57;;;5.97;;
20324;SDS011;10320;49.482;11.256;2023-11-19T06:15:44;6.73;;;5.00;;
20324;SDS011;10320;49.482;11.256;2023-11-19T06:18:10;6.20;;;5.60;;
20324;SDS011;10320;49.482;11.256;2023-11-19T06:20:37;6.90;;;6.20;;
20324;SDS011;10320;49.482;11.256;2023-11-19T06:23:03;6.00;;;5.40;;
20324;SDS011;10320;49.482;11.256;2023-11-19T06:25:29;6.50;;;5.70;;
20324;SDS011;10320;49.482;11.256;2023-11-19T06:27:55;6.13;;;5.53;;
20324;SDS011;10320;49.482;11.256;2023-11-19T06:30:22;6.60;;;5.90;;
20324;SDS011;10320;49.482;11.256;2023-11-19T06:32:48;6.13;;;5.53;;
20324;SDS011;10320;49.482;11.256;2023-11-19T06:35:14;6.37;;;5.50;;
20324;SDS011;10320;49.482;11.256;2023-11-19T06:37:40;5.90;;;5.30;;
20324;SDS011;10320;49.482;11.256;2023-11-19T06:40:07;5.57;;;5.00;;
20324;SDS011;10320;49.482;11.256;2023-11-19T06:42:34;6.27;;;5.33;;
20324;SDS011;10320;49.482;11.256;2023-11-19T06:45:00;5.90;;;5.20;;
20324;SDS011;10320;49.482;11.256;2023-11-19T06:47:27;5.40;;;4.90;;
20324;SDS011;10320;49.482;11.256;2023-11-19T06:49:54;6.23;;;4.80;;
20324;SDS011;10320;49.482;11.256;2023-11-19T06:52:20;6.47;;;5.27;;
20324;SDS011;10320;49.482;11.256;2023-11-19T06:54:46;5.53;;;4.87;;
20324;SDS011;10320;49.482;11.256;2023-11-19T06:57:12;5.60;;;5.00;;
20324;SDS011;10320;49.482;11.256;2023-11-19T06:59:38;4.93;;;4.00;;
20324;SDS011;10320;49.482;11.256;2023-11-19T07:02:05;5.47;;;4.23;;
20324;SDS011;10320;49.482;11.256;2023-11-19T07:04:31;4.77;;;4.37;;
20324;SDS011;10320;49.482;11.256;2023-11-19T07:06:58;5.00;;;4.53;;
20324;SDS011;10320;49.482;11.256;2023-11-19T07:09:24;6.27;;;5.70;;
20324;SDS011;10320;49.482;11.256;2023-11-19T07:11:50;7.43;;;6.73;;
20324;SDS011;10320;49.482;11.256;2023-11-19T07:14:17;6.20;;;5.70;;
20324;SDS011;10320;49.482;11.256;2023-11-19T07:16:43;5.43;;;5.03;;
20324;SDS011;10320;49.482;11.256;2023-11-19T07:19:11;4.77;;;4.33;;
20324;SDS011;10320;49.482;11.256;2023-11-19T07:21:39;4.20;;;3.80;;
20324;SDS011;10320;49.482;11.256;2023-11-19T07:24:09;4.97;;;4.50;;
20324;SDS011;10320;49.482;11.256;2023-11-19T07:26:35;4.23;;;3.87;;
20324;SDS011;10320;49.482;11.256;2023-11-19T07:29:02;4.53;;;4.13;;
20324;SDS011;10320;49.482;11.256;2023-11-19T07:31:28;5.00;;;4.60;;
20324;SDS011;10320;49.482;11.256;2023-11-19T07:33:54;3.80;;;3.50;;
20324;SDS011;10320;49.482;11.256;2023-11-19T07:36:20;4.10;;;3.70;;
20324;SDS011;10320;49.482;11.256;2023-11-19T07:38:46;3.67;;;3.30;;
20324;SDS011;10320;49.482;11.256;2023-11-19T07:41:15;3.57;;;3.13;;
20324;SDS011;10320;49.482;11.256;2023-11-19T07:43:44;4.73;;;4.00;;
20324;SDS011;10320;49.482;11.256;2023-11-19T07:46:11;4.73;;;4.33;;
20324;SDS011;10320;49.482;11.256;2023-11-19T07:48:40;5.00;;;4.50;;
20324;SDS011;10320;49.482;11.256;2023-11-19T07:51:07;4.20;;;3.90;;
20324;SDS011;10320;49.482;11.256;2023-11-19T07:53:33;19.30;;;12.17;;
20324;SDS011;10320;49.482;11.256;2023-11-19T07:56:00;5.70;;;4.83;;
20324;SDS011;10320;49.482;11.256;2023-11-19T07:58:26;10.20;;;6.57;;
20324;SDS011;10320;49.482;11.256;2023-11-19T08:00:52;6.80;;;4.40;;
20324;SDS011;10320;49.482;11.256;2023-11-19T08:03:18;10.30;;;8.03;;
20324;SDS011;10320;49.482;11.256;2023-11-19T08:05:47;7.80;;;6.10;;
20324;SDS011;10320;49.482;11.256;2023-11-19T08:08:13;4.17;;;3.30;;
20324;SDS011;10320;49.482;11.256;2023-11-19T08:10:40;8.93;;;5.80;;
20324;SDS011;10320;49.482;11.256;2023-11-19T08:13:06;5.60;;;4.87;;
20324;SDS011;10320;49.482;11.256;2023-11-19T08:15:35;4.00;;;3.60;;
20324;SDS011;10320;49.482;11.256;2023-11-19T08:18:01;4.23;;;3.10;;
20324;SDS011;10320;49.482;11.256;2023-11-19T08:20:27;4.33;;;3.27;;
20324;SDS011;10320;49.482;11.256;2023-11-19T08:22:53;5.70;;;5.13;;
20324;SDS011;10320;49.482;11.256;2023-11-19T08:25:19;2.97;;;2.67;;
20324;SDS011;10320;49.482;11.256;2023-11-19T08:27:45;2.00;;;1.80;;
20324;SDS011;10320;49.482;11.256;2023-11-19T08:30:11;3.60;;;2.13;;
20324;SDS011;10320;49.482;11.256;2023-11-19T08:32:38;2.63;;;2.43;;
20324;SDS011;10320;49.482;11.256;2023-11-19T08:35:04;2.17;;;2.00;;
20324;SDS011;10320;49.482;11.256;2023-11-19T08:37:30;3.90;;;2.17;;
20324;SDS011;10320;49.482;11.256;2023-11-19T08:39:56;2.30;;;2.10;;
20324;SDS011;10320;49.482;11.256;2023-11-19T08:42:22;2.13;;;1.93;;
20324;SDS011;10320;49.482;11.256;2023-11-19T08:44:49;2.60;;;2.37;;
20324;SDS011;10320;49.482;11.256;2023-11-19T08:47:16;1.70;;;1.60;;
20324;SDS011;10320;49.482;11.256;2023-11-19T08:49:44;3.00;;;2.17;;
20324;SDS011;10320;49.482;11.256;2023-11-19T08:52:11;2.17;;;2.07;;
20324;SDS011;10320;49.482;11.256;2023-11-19T08:54:37;2.47;;;1.60;;
20324;SDS011;10320;49.482;11.256;2023-11-19T08:57:03;2.47;;;1.63;;
20324;SDS011;10320;49.482;11.256;2023-11-19T08:59:32;1.43;;;1.33;;
20324;SDS011;10320;49.482;11.256;2023-11-19T09:01:58;1.70;;;1.50;;
20324;SDS011;10320;49.482;11.256;2023-11-19T09:04:24;2.67;;;1.70;;
20324;SDS011;10320;49.482;11.256;2023-11-19T09:06:50;2.50;;;1.80;;
20324;SDS011;10320;49.482;11.256;2023-11-19T09:09:16;3.13;;;1.80;;
20324;SDS011;10320;49.482;11.256;2023-11-19T09:11:42;2.30;;;1.30;;
20324;SDS011;10320;49.482;11.256;2023-11-19T09:14:09;2.53;;;1.37;;
20324;SDS011;10320;49.482;11.256;2023-11-19T09:16:35;1.60;;;1.50;;
20324;SDS011;10320;49.482;11.256;2023-11-19T09:19:01;1.90;;;1.43;;
20324;SDS011;10320;49.482;11.256;2023-11-19T09:21:28;1.60;;;1.43;;
20324;SDS011;10320;49.482;11.256;2023-11-19T09:23:59;1.87;;;1.50;;
20324;SDS011;10320;49.482;11.256;2023-11-19T09:26:25;1.70;;;1.33;;
20324;SDS011;10320;49.482;11.256;2023-11-19T09:28:51;1.77;;;1.27;;
20324;SDS011;10320;49.482;11.256;2023-11-19T09:31:17;2.23;;;1.37;;
20324;SDS011;10320;49.482;11.256;2023-11-19T09:33:44;1.67;;;1.10;;
20324;SDS011;10320;49.482;11.256;2023-11-19T09:36:13;2.17;;;1.23;;
20324;SDS011;10320;49.482;11.256;2023-11-19T09:38:41;3.73;;;1.73;;
20324;SDS011;10320;49.482;11.256;2023-11-19T09:41:07;2.20;;;1.70;;
20324;SDS011;10320;49.482;11.256;2023-11-19T09:43:34;2.43;;;1.70;;
20324;SDS011;10320;49.482;11.256;2023-11-19T09:46:10;2.07;;;1.40;;
20324;SDS011;10320;49.482;11.256;2023-11-19T09:48:37;2.13;;;1.63;;
20324;SDS011;10320;49.482;11.256;2023-11-19T09:51:05;1.70;;;1.50;;
20324;SDS011;10320;49.482;11.256;2023-11-19T09:53:31;3.37;;;1.63;;
20324;SDS011;10320;49.482;11.256;2023-11-19T09:55:59;2.33;;;1.80;;
20324;SDS011;10320;49.482;11.256;2023-11-19T09:58:27;3.20;;;2.00;;
20324;SDS011;10320;49.482;11.256;2023-11-19T10:00:53;2.80;;;2.00;;
20324;SDS011;10320;49.482;11.256;2023-11-19T10:03:20;2.53;;;1.67;;
20324;SDS011;10320;49.482;11.256;2023-11-19T10:05:47;2.60;;;1.30;;
20324;SDS011;10320;49.482;11.256;2023-11-19T10:08:14;2.53;;;1.43;;
20324;SDS011;10320;49.482;11.256;2023-11-19T10:10:41;3.03;;;1.40;;
20324;SDS011;10320;49.482;11.256;2023-11-19T10:13:07;4.03;;;1.60;;
20324;SDS011;10320;49.482;11.256;2023-11-19T10:15:36;1.73;;;1.60;;
20324;SDS011;10320;49.482;11.256;2023-11-19T10:18:03;2.07;;;1.57;;
20324;SDS011;10320;49.482;11.256;2023-11-19T10:20:35;1.57;;;1.30;;
20324;SDS011;10320;49.482;11.256;2023-11-19T10:23:03;1.90;;;1.10;;
20324;SDS011;10320;49.482;11.256;2023-11-19T10:25:29;1.67;;;1.20;;
20324;SDS011;10320;49.482;11.256;2023-11-19T10:27:56;2.73;;;1.17;;
20324;SDS011;10320;49.482;11.256;2023-11-19T10:30:23;2.03;;;1.37;;
20324;SDS011;10320;49.482;11.256;2023-11-19T10:35:28;1.70;;;1.10;;
20324;SDS011;10320;49.482;11.256;2023-11-19T10:37:54;1.87;;;1.10;;
20324;SDS011;10320;49.482;11.256;2023-11-19T10:40:20;2.30;;;1.20;;
20324;SDS011;10320;49.482;11.256;2023-11-19T10:42:46;2.40;;;1.20;;
20324;SDS011;10320;49.482;11.256;2023-11-19T10:45:22;2.70;;;1.40;;
20324;SDS011;10320;49.482;11.256;2023-11-19T10:47:51;1.40;;;1.30;;
20324;SDS011;10320;49.482;11.256;2023-11-19T10:50:17;1.63;;;1.20;;
20324;SDS011;10320;49.482;11.256;2023-11-19T10:52:44;1.33;;;1.20;;
20324;SDS011;10320;49.482;11.256;2023-11-19T10:55:12;1.60;;;1.00;;
20324;SDS011;10320;49.482;11.256;2023-11-19T10:57:42;1.97;;;1.40;;
20324;SDS011;10320;49.482;11.256;2023-11-19T11:00:11;1.40;;;1.17;;
20324;SDS011;10320;49.482;11.256;2023-11-19T11:02:40;2.00;;;1.40;;
20324;SDS011;10320;49.482;11.256;2023-11-19T11:05:07;2.60;;;1.70;;
20324;SDS011;10320;49.482;11.256;2023-11-19T11:07:34;4.47;;;1.60;;
20324;SDS011;10320;49.482;11.256;2023-11-19T11:10:01;2.50;;;1.30;;
20324;SDS011;10320;49.482;11.256;2023-11-19T11:12:31;1.30;;;1.20;;
20324;SDS011;10320;49.482;11.256;2023-11-19T11:14:59;1.57;;;1.10;;
20324;SDS011;10320;49.482;11.256;2023-11-19T11:17:25;1.63;;;1.03;;
20324;SDS011;10320;49.482;11.256;2023-11-19T11:19:53;2.00;;;1.20;;
20324;SDS011;10320;49.482;11.256;2023-11-19T11:22:19;2.80;;;1.33;;
20324;SDS011;10320;49.482;11.256;2023-11-19T11:25:03;2.50;;;1.43;;
20324;SDS011;10320;49.482;11.256;2023-11-19T11:35:55;1.40;;;1.20;;
20324;SDS011;10320;49.482;11.256;2023-11-19T11:38:21;1.67;;;1.17;;
20324;SDS011;10320;49.482;11.256;2023-11-19T11:41:14;1.50;;;1.13;;
20324;SDS011;10320;49.482;11.256;2023-11-19T11:49:04;1.77;;;1.20;;
20324;SDS011;10320;49.482;11.256;2023-11-19T11:54:25;3.27;;;1.43;;
20324;SDS011;10320;49.482;11.256;2023-11-19T11:57:07;2.67;;;1.10;;
20324;SDS011;10320;49.482;11.256;2023-11-19T11:59:37;2.07;;;1.40;;
20324;SDS011;10320;49.482;11.256;2023-11-19T12:02:03;1.77;;;1.20;;
20324;SDS011;10320;49.482;11.256;2023-11-19T12:04:29;3.97;;;1.20;;
20324;SDS011;10320;49.482;11.256;2023-11-19T12:07:03;1.80;;;1.23;;
20324;SDS011;10320;49.482;11.256;2023-11-19T12:09:29;2.87;;;1.20;;
20324;SDS011;10320;49.482;11.256;2023-11-19T12:20:00;1.67;;;1.50;;
20324;SDS011;10320;49.482;11.256;2023-11-19T12:22:27;2.87;;;1.30;;
20324;SDS011;10320;49.482;11.256;2023-11-19T12:24:53;2.80;;;1.60;;
20324;SDS011;10320;49.482;11.256;2023-11-19T12:27:20;2.33;;;1.40;;
20324;SDS011;10320;49.482;11.256;2023-11-19T12:29:49;1.70;;;1.23;;
20324;SDS011;10320;49.482;11.256;2023-11-19T12:32:15;2.90;;;1.30;;
20324;SDS011;10320;49.482;11.256;2023-11-19T12:34:41;2.53;;;1.60;;
20324;SDS011;10320;49.482;11.256;2023-11-19T12:37:09;2.57;;;1.50;;
20324;SDS011;10320;49.482;11.256;2023-11-19T12:39:35;3.23;;;1.50;;
20324;SDS011;10320;49.482;11.256;2023-11-19T12:42:01;2.50;;;1.70;;
20324;SDS011;10320;49.482;11.256;2023-11-19T12:44:27;6.10;;;2.67;;
20324;SDS011;10320;49.482;11.256;2023-11-19T12:49:29;3.37;;;1.90;;
20324;SDS011;10320;49.482;11.256;2023-11-19T12:51:55;2.57;;;1.70;;
20324;SDS011;10320;49.482;11.256;2023-11-19T12:54:37;2.07;;;1.70;;
20324;SDS011;10320;49.482;11.256;2023-11-19T12:57:03;2.30;;;1.33;;
20324;SDS011;10320;49.482;11.256;2023-11-19T12:59:30;2.57;;;1.43;;
20324;SDS011;10320;49.482;11.256;2023-11-19T13:01:59;1.80;;;1.40;;
20324;SDS011;10320;49.482;11.256;2023-11-19T13:04:30;1.70;;;1.47;;
20324;SDS011;10320;49.482;11.256;2023-11-19T13:07:00;2.40;;;1.40;;
20324;SDS011;10320;49.482;11.256;2023-11-19T13:09:29;1.87;;;1.20;;
20324;SDS011;10320;49.482;11.256;2023-11-19T13:11:56;1.87;;;1.40;;
20324;SDS011;10320;49.482;11.256;2023-11-19T13:14:23;3.63;;;1.60;;
20324;SDS011;10320;49.482;11.256;2023-11-19T13:16:49;1.90;;;1.40;;
20324;SDS011;10320;49.482;11.256;2023-11-19T13:19:15;3.37;;;1.40;;
20324;SDS011;10320;49.482;11.256;2023-11-19T13:21:43;1.73;;;1.33;;
20324;SDS011;10320;49.482;11.256;2023-11-19T13:24:11;3.07;;;1.30;;
20324;SDS011;10320;49.482;11.256;2023-11-19T13:26:38;2.43;;;1.30;;
20324;SDS011;10320;49.482;11.256;2023-11-19T13:29:04;1.80;;;1.03;;
20324;SDS011;10320;49.482;11.256;2023-11-19T13:31:30;2.93;;;1.63;;
20324;SDS011;10320;49.482;11.256;2023-11-19T13:33:56;3.03;;;1.63;;
20324;SDS011;10320;49.482;11.256;2023-11-19T13:36:23;3.83;;;1.43;;
20324;SDS011;10320;49.482;11.256;2023-11-19T13:38:51;1.90;;;1.07;;
20324;SDS011;10320;49.482;11.256;2023-11-19T13:41:23;2.23;;;1.30;;
20324;SDS011;10320;49.482;11.256;2023-11-19T13:43:50;1.53;;;1.20;;
20324;SDS011;10320;49.482;11.256;2023-11-19T13:46:16;3.03;;;1.60;;
20324;SDS011;10320;49.482;11.256;2023-11-19T13:48:42;2.00;;;1.40;;
20324;SDS011;10320;49.482;11.256;2023-11-19T13:51:08;2.03;;;1.40;;
20324;SDS011;10320;49.482;11.256;2023-11-19T13:53:35;1.73;;;1.30;;
20324;SDS011;10320;49.482;11.256;2023-11-19T13:56:01;4.03;;;1.17;;
20324;SDS011;10320;49.482;11.256;2023-11-19T13:58:27;2.30;;;1.50;;
20324;SDS011;10320;49.482;11.256;2023-11-19T14:00:53;1.63;;;1.10;;
20324;SDS011;10320;49.482;11.256;2023-11-19T14:03:19;3.00;;;1.47;;
20324;SDS011;10320;49.482;11.256;2023-11-19T14:05:45;1.80;;;1.10;;
20324;SDS011;10320;49.482;11.256;2023-11-19T14:08:12;1.17;;;1.07;;
20324;SDS011;10320;49.482;11.256;2023-11-19T14:10:38;1.30;;;1.20;;
20324;SDS011;10320;49.482;11.256;2023-11-19T14:13:07;1.87;;;1.10;;
20324;SDS011;10320;49.482;11.256;2023-11-19T14:15:34;2.10;;;1.30;;
20324;SDS011;10320;49.482;11.256;2023-11-19T14:18:00;1.80;;;1.10;;
20324;SDS011;10320;49.482;11.256;2023-11-19T14:20:26;2.43;;;1.03;;
20324;SDS011;10320;49.482;11.256;2023-11-19T14:22:53;1.33;;;0.97;;
20324;SDS011;10320;49.482;11.256;2023-11-19T14:25:19;1.67;;;1.30;;
20324;SDS011;10320;49.482;11.256;2023-11-19T14:27:46;2.33;;;1.00;;
20324;SDS011;10320;49.482;11.256;2023-11-19T14:30:13;1.83;;;1.00;;
20324;SDS011;10320;49.482;11.256;2023-11-19T14:32:40;2.37;;;1.00;;
20324;SDS011;10320;49.482;11.256;2023-11-19T14:35:10;2.37;;;1.67;;
20324;SDS011;10320;49.482;11.256;2023-11-19T14:37:37;1.73;;;1.23;;
20324;SDS011;10320;49.482;11.256;2023-11-19T14:40:03;2.27;;;1.20;;
20324;SDS011;10320;49.482;11.256;2023-11-19T14:42:30;2.53;;;1.03;;
20324;SDS011;10320;49.482;11.256;2023-11-19T14:44:57;1.20;;;0.90;;
20324;SDS011;10320;49.482;11.256;2023-11-19T14:47:23;3.00;;;1.40;;
20324;SDS011;10320;49.482;11.256;2023-11-19T14:49:49;2.47;;;1.40;;
20324;SDS011;10320;49.482;11.256;2023-11-19T14:52:16;1.73;;;1.50;;
20324;SDS011;10320;49.482;11.256;2023-11-19T14:54:42;2.87;;;1.50;;
20324;SDS011;10320;49.482;11.256;2023-11-19T14:57:08;2.83;;;1.47;;
20324;SDS011;10320;49.482;11.256;2023-11-19T14:59:35;1.60;;;1.40;;
20324;SDS011;10320;49.482;11.256;2023-11-19T15:02:01;2.13;;;1.30;;